Time;durP1;ratioP1;P1;durP2;ratioP2;P2;SDS_P1;SDS_P2;PMS_P1;PMS_P2;Temp;Humidity;BMP_temperature;BMP_pressure;BME280_temperature;BME280_humidity;BME280_pressure;Samples;Min_cycle;Max_cycle;Signal;HPM_P1;HPM_P2
2023/04/09 00:01:25;;;;;;;35.05;21.10;;;;;;;8.92;100.00;102472.44;5050198;28;20049;-64
2023/04/09 00:03:53;;;;;;;35.55;20.50;;;;;;;8.91;100.00;102470.72;5059781;28;20530;-64
2023/04/09 00:06:21;;;;;;;35.17;21.45;;;;;;;8.95;100.00;102466.22;5070907;28;20067;-64
2023/04/09 00:08:49;;;;;;;33.83;21.08;;;;;;;8.94;100.00;102462.75;5066934;28;20507;-64
2023/04/09 00:11:20;;;;;;;36.03;21.13;;;;;;;8.94;100.00;102468.00;5061862;28;20051;-64
2023/04/09 00:13:49;;;;;;;36.72;21.75;;;;;;;8.93;100.00;102463.66;5065942;28;20038;-64
2023/04/09 00:16:18;;;;;;;37.25;22.00;;;;;;;8.94;100.00;102470.63;5058273;28;20040;-64
2023/04/09 00:18:46;;;;;;;33.33;21.08;;;;;;;8.92;100.00;102467.19;5065591;28;20072;-65
2023/04/09 00:21:15;;;;;;;36.13;21.58;;;;;;;8.91;100.00;102469.88;5059328;28;20040;-65
2023/04/09 00:23:43;;;;;;;35.78;21.92;;;;;;;8.94;100.00;102464.50;5062495;28;20402;-65
2023/04/09 00:26:11;;;;;;;35.75;22.45;;;;;;;8.94;100.00;102464.50;5061415;28;20044;-64
2023/04/09 00:28:39;;;;;;;34.03;21.25;;;;;;;8.95;100.00;102459.22;5061660;28;20044;-65
2023/04/09 00:31:09;;;;;;;40.17;22.42;;;;;;;8.92;100.00;102451.44;5059114;28;20552;-64
2023/04/09 00:33:37;;;;;;;35.33;22.13;;;;;;;8.90;100.00;102453.28;5067096;28;20112;-64
2023/04/09 00:36:06;;;;;;;37.13;22.52;;;;;;;8.92;100.00;102442.72;5071563;28;20048;-65
2023/04/09 00:38:34;;;;;;;36.47;22.60;;;;;;;8.87;100.00;102448.09;5074884;28;20057;-65
2023/04/09 00:41:02;;;;;;;39.25;22.98;;;;;;;8.82;100.00;102444.78;5073169;28;20623;-64
2023/04/09 00:43:30;;;;;;;35.25;21.33;;;;;;;8.84;100.00;102442.13;5071689;28;20049;-64
2023/04/09 00:45:59;;;;;;;36.47;22.40;;;;;;;8.86;100.00;102442.91;5070415;28;20052;-65
2023/04/09 00:48:29;;;;;;;35.38;21.83;;;;;;;8.85;100.00;102438.56;5071312;28;20056;-65
2023/04/09 00:50:57;;;;;;;34.85;22.02;;;;;;;8.77;100.00;102442.28;5050963;28;20551;-64
2023/04/09 00:53:25;;;;;;;38.50;23.35;;;;;;;8.68;100.00;102434.72;5071407;28;20120;-64
2023/04/09 00:55:55;;;;;;;33.88;21.42;;;;;;;8.75;100.00;102441.50;5074183;28;20040;-64
2023/04/09 00:58:23;;;;;;;35.72;21.92;;;;;;;8.72;100.00;102433.72;5074271;28;20079;-64
2023/04/09 01:00:51;;;;;;;38.65;22.23;;;;;;;8.76;100.00;102432.69;5070342;28;20066;-64
2023/04/09 01:03:19;;;;;;;35.67;21.00;;;;;;;8.77;100.00;102430.97;5070374;28;20060;-64
2023/04/09 01:05:56;;;;;;;36.85;23.65;;;;;;;8.74;100.00;102425.78;5062513;28;20412;-64
2023/04/09 01:08:33;;;;;;;37.85;22.40;;;;;;;8.78;100.00;102433.53;5064763;28;20037;-64
2023/04/09 01:11:09;;;;;;;34.47;21.73;;;;;;;8.73;100.00;102426.72;5057565;28;20115;-64
2023/04/09 01:13:47;;;;;;;34.20;22.00;;;;;;;8.79;100.00;102432.63;5063795;28;20052;-65
2023/04/09 01:16:16;;;;;;;35.78;22.25;;;;;;;8.84;100.00;102421.13;5060417;28;20123;-64
2023/04/09 01:18:52;;;;;;;37.72;22.05;;;;;;;8.79;100.00;102426.50;5071927;28;20044;-64
2023/04/09 01:21:26;;;;;;;35.67;21.60;;;;;;;8.80;100.00;102420.34;5057342;28;20049;-64
2023/04/09 01:24:00;;;;;;;37.13;21.85;;;;;;;8.71;100.00;102423.28;5058413;28;20076;-64
2023/04/09 01:26:41;;;;;;;33.85;20.80;;;;;;;8.78;100.00;102424.78;5063759;28;20098;-65
2023/04/09 01:29:11;;;;;;;36.60;22.20;;;;;;;8.74;100.00;102425.78;5054777;28;20134;-64
2023/04/09 01:31:41;;;;;;;34.53;21.15;;;;;;;8.77;100.00;102426.56;5057454;28;20072;-64
2023/04/09 01:34:14;;;;;;;35.45;21.95;;;;;;;8.76;100.00;102424.00;5061666;28;20072;-64
2023/04/09 01:36:46;;;;;;;30.35;19.73;;;;;;;8.70;100.00;102422.44;5060663;28;20094;-64
2023/04/09 01:39:14;;;;;;;33.17;20.47;;;;;;;8.67;100.00;102419.91;5060368;28;20049;-64
2023/04/09 01:41:43;;;;;;;34.65;19.88;;;;;;;8.69;100.00;102422.47;5062175;28;20584;-64
2023/04/09 01:44:13;;;;;;;32.03;19.05;;;;;;;8.68;100.00;102426.00;5059746;28;20102;-65
2023/04/09 01:46:42;;;;;;;33.95;20.80;;;;;;;8.67;100.00;102419.91;5058918;28;20076;-64
2023/04/09 01:49:11;;;;;;;34.33;22.63;;;;;;;8.66;100.00;102418.19;5065633;28;20107;-65
2023/04/09 01:51:39;;;;;;;32.60;20.65;;;;;;;8.71;100.00;102424.16;5057071;28;20044;-64
2023/04/09 01:54:10;;;;;;;36.55;22.80;;;;;;;8.76;100.00;102421.38;5063950;28;20036;-64
2023/04/09 01:56:42;;;;;;;35.70;21.13;;;;;;;8.76;100.00;102416.13;5062511;28;20040;-64
2023/04/09 01:59:13;;;;;;;35.45;21.70;;;;;;;8.75;100.00;102422.25;5057673;28;20533;-64
2023/04/09 02:01:45;;;;;;;36.42;22.05;;;;;;;8.75;100.00;102422.25;5059429;28;20668;-64
2023/04/09 02:04:22;;;;;;;33.92;21.05;;;;;;;8.76;100.00;102424.00;5059287;28;20149;-64
2023/04/09 02:06:59;;;;;;;35.88;22.05;;;;;;;8.70;100.00;102421.53;5061356;28;20776;-64
2023/04/09 02:09:31;;;;;;;34.60;21.45;;;;;;;8.69;100.00;102423.31;5057420;28;20048;-64
2023/04/09 02:12:02;;;;;;;33.47;21.15;;;;;;;8.67;100.00;102413.78;5061423;28;20056;-64
2023/04/09 02:14:33;;;;;;;33.28;20.75;;;;;;;8.63;100.00;102413.91;5058340;28;20082;-64
2023/04/09 02:17:02;;;;;;;34.28;20.73;;;;;;;8.60;100.00;102414.00;5063380;28;20048;-64
2023/04/09 02:19:39;;;;;;;33.42;19.83;;;;;;;8.63;100.00;102413.91;5060686;28;20507;-65
2023/04/09 02:22:07;;;;;;;33.05;20.35;;;;;;;8.66;100.00;102406.81;5059201;28;20109;-64
2023/04/09 02:24:36;;;;;;;31.02;19.85;;;;;;;8.64;100.00;102404.25;5063214;28;20051;-64
2023/04/09 02:27:04;;;;;;;34.92;20.73;;;;;;;8.59;100.00;102407.03;5062418;28;20478;-64
2023/04/09 02:29:36;;;;;;;33.30;20.90;;;;;;;8.58;100.00;102413.19;5062223;28;20048;-64
2023/04/09 02:32:05;;;;;;;33.00;20.02;;;;;;;8.66;100.00;102409.44;5060379;28;20078;-65
2023/04/09 02:34:34;;;;;;;31.67;20.63;;;;;;;8.65;100.00;102410.38;5070407;28;20507;-64
2023/04/09 02:37:04;;;;;;;33.80;20.48;;;;;;;8.67;100.00;102405.91;5071760;28;20046;-65
2023/04/09 02:39:32;;;;;;;31.88;20.58;;;;;;;8.64;100.00;102404.25;5069283;28;20526;-64
2023/04/09 02:42:01;;;;;;;33.42;20.88;;;;;;;8.62;100.00;102406.94;5067925;28;20048;-64
2023/04/09 02:44:29;;;;;;;31.73;19.40;;;;;;;8.67;100.00;102398.06;5067975;28;20094;-64
2023/04/09 02:46:58;;;;;;;33.80;21.50;;;;;;;8.64;100.00;102393.75;5071315;28;20488;-64
2023/04/09 02:49:26;;;;;;;34.05;20.60;;;;;;;8.58;100.00;102392.19;5052160;28;20077;-65
2023/04/09 02:51:54;;;;;;;32.45;20.15;;;;;;;8.58;100.00;102394.81;5056697;28;20051;-64
2023/04/09 02:54:25;;;;;;;29.35;20.13;;;;;;;8.63;100.00;102394.69;5069341;28;20459;-64
2023/04/09 02:56:53;;;;;;;34.25;20.42;;;;;;;8.61;100.00;102384.22;5067605;28;20582;-64
2023/04/09 02:59:21;;;;;;;34.10;21.48;;;;;;;8.59;100.00;102388.66;5068478;28;20052;-64
2023/04/09 03:01:49;;;;;;;34.03;21.40;;;;;;;8.60;100.00;102387.78;5067528;28;20053;-64
2023/04/09 03:04:19;;;;;;;32.00;20.33;;;;;;;8.57;100.00;102389.63;5066903;28;20742;-64
2023/04/09 03:06:47;;;;;;;32.78;21.42;;;;;;;8.56;100.00;102391.41;5062398;28;20044;-65
2023/04/09 03:09:15;;;;;;;32.30;20.33;;;;;;;8.55;100.00;102381.81;5062507;28;20045;-64
2023/04/09 03:11:43;;;;;;;34.10;21.17;;;;;;;8.53;100.00;102386.22;5056382;28;20086;-63
2023/04/09 03:14:14;;;;;;;30.77;19.65;;;;;;;8.48;100.00;102387.28;5054782;28;20099;-65
2023/04/09 03:16:42;;;;;;;34.15;20.67;;;;;;;8.59;100.00;102378.19;5059274;28;21684;-64
2023/04/09 03:19:11;;;;;;;33.95;20.52;;;;;;;8.59;100.00;102378.19;5066163;28;20492;-64
2023/04/09 03:21:40;;;;;;;31.67;20.10;;;;;;;8.54;100.00;102379.25;5059657;28;20053;-65
2023/04/09 03:24:08;;;;;;;38.30;21.92;;;;;;;8.51;100.00;102385.44;5056559;28;20106;-64
2023/04/09 03:26:37;;;;;;;32.42;20.30;;;;;;;8.48;100.00;102377.69;5057891;28;20079;-64
2023/04/09 03:29:06;;;;;;;33.35;20.60;;;;;;;8.51;100.00;102380.19;5061926;28;20041;-64
2023/04/09 03:31:34;;;;;;;30.40;19.67;;;;;;;8.49;100.00;102376.75;5061786;28;20043;-64
2023/04/09 03:34:02;;;;;;;32.08;20.08;;;;;;;8.45;100.00;102377.75;5063077;28;20113;-65
2023/04/09 03:36:31;;;;;;;32.65;19.98;;;;;;;8.47;100.00;102362.84;5068562;28;20037;-64
2023/04/09 03:39:01;;;;;;;29.92;19.65;;;;;;;8.40;100.00;102367.41;5063064;28;20136;-64
2023/04/09 03:41:29;;;;;;;30.90;19.60;;;;;;;8.43;100.00;102366.44;5067531;28;20106;-64
2023/04/09 03:43:57;;;;;;;30.00;18.88;;;;;;;8.40;100.00;102369.16;5068267;28;20479;-64
2023/04/09 03:46:25;;;;;;;30.58;19.77;;;;;;;8.31;100.00;102364.22;5067201;28;20119;-64
2023/04/09 03:48:53;;;;;;;34.80;20.00;;;;;;;8.34;100.00;102366.72;5070786;28;20092;-64
2023/04/09 03:51:21;;;;;;;32.33;20.05;;;;;;;8.33;100.00;102365.88;5071954;28;20047;-64
2023/04/09 03:53:50;;;;;;;33.30;20.05;;;;;;;8.33;100.00;102367.63;5072030;28;20504;-64
2023/04/09 03:56:19;;;;;;;30.92;20.02;;;;;;;8.35;100.00;102361.44;5071024;28;20049;-64
2023/04/09 03:58:48;;;;;;;29.60;19.45;;;;;;;8.28;100.00;102363.38;5075819;28;20533;-64
2023/04/09 04:01:16;;;;;;;30.35;18.23;;;;;;;8.33;100.00;102365.88;5073351;28;20046;-64
2023/04/09 04:03:44;;;;;;;31.20;19.40;;;;;;;8.29;100.00;102361.63;5069548;28;20068;-64
2023/04/09 04:06:13;;;;;;;31.98;19.50;;;;;;;8.31;100.00;102364.22;5058481;28;20048;-64
2023/04/09 04:08:41;;;;;;;30.67;19.25;;;;;;;8.25;100.00;102362.66;5063369;28;20049;-64
2023/04/09 04:11:09;;;;;;;29.33;19.58;;;;;;;8.25;100.00;102368.72;5068040;28;20045;-64
2023/04/09 04:13:39;;;;;;;29.77;18.90;;;;;;;8.20;100.00;102368.00;5060776;28;20041;-64
2023/04/09 04:16:08;;;;;;;31.30;20.10;;;;;;;8.16;100.00;102370.78;5061288;28;20086;-64
2023/04/09 04:18:37;;;;;;;31.65;20.00;;;;;;;8.12;100.00;102364.75;5061390;28;20036;-64
2023/04/09 04:21:05;;;;;;;30.38;19.10;;;;;;;8.08;100.00;102365.75;5057496;28;20056;-64
2023/04/09 04:23:34;;;;;;;30.02;18.40;;;;;;;8.05;100.00;102368.50;5062300;28;20036;-64
2023/04/09 04:26:08;;;;;;;31.00;19.80;;;;;;;8.06;100.00;102371.06;5062855;28;20032;-64
2023/04/09 04:28:37;;;;;;;30.92;19.17;;;;;;;8.09;100.00;102363.09;5060879;28;20058;-64
2023/04/09 04:31:09;;;;;;;31.42;19.63;;;;;;;8.08;100.00;102369.22;5062602;28;20051;-64
2023/04/09 04:33:39;;;;;;;28.98;18.13;;;;;;;8.07;100.00;102366.66;5064769;28;20059;-64
2023/04/09 04:36:08;;;;;;;33.55;19.77;;;;;;;7.98;100.00;102373.06;5061679;28;20040;-64
2023/04/09 04:38:37;;;;;;;31.17;18.85;;;;;;;7.90;100.00;102375.03;5064835;28;20372;-64
2023/04/09 04:41:05;;;;;;;33.47;19.20;;;;;;;7.85;100.00;102367.28;5061822;28;20043;-64
2023/04/09 04:43:34;;;;;;;32.42;19.67;;;;;;;7.93;100.00;102375.81;5062328;28;20056;-65
2023/04/09 04:46:02;;;;;;;28.55;17.70;;;;;;;7.86;100.00;102371.66;5062534;28;20037;-64
2023/04/09 04:48:32;;;;;;;30.83;19.23;;;;;;;7.78;100.00;102371.00;5066469;28;20523;-65
2023/04/09 04:51:01;;;;;;;32.47;19.38;;;;;;;7.74;100.00;102372.88;5067590;28;20043;-64
2023/04/09 04:53:29;;;;;;;32.47;18.75;;;;;;;7.74;100.00;102379.84;5062708;28;20041;-65
2023/04/09 04:55:57;;;;;;;28.55;18.30;;;;;;;7.66;100.00;102376.59;5059702;28;20052;-64
2023/04/09 04:58:25;;;;;;;30.58;19.02;;;;;;;7.58;100.00;102379.44;5059937;28;20078;-64
2023/04/09 05:00:53;;;;;;;31.70;19.23;;;;;;;7.48;100.00;102377.97;5061189;28;20045;-64
2023/04/09 05:03:24;;;;;;;30.10;17.48;;;;;;;7.43;100.00;102383.31;5059168;28;20051;-63
2023/04/09 05:05:58;;;;;;;30.90;18.77;;;;;;;7.40;100.00;102383.41;5057722;28;20041;-63
2023/04/09 05:08:26;;;;;;;32.15;19.70;;;;;;;7.39;100.00;102381.69;5061221;28;20051;-63
2023/04/09 05:10:55;;;;;;;30.63;18.50;;;;;;;7.27;100.00;102375.06;5062811;28;20495;-64
2023/04/09 05:13:23;;;;;;;28.63;17.80;;;;;;;7.26;100.00;102373.31;5058204;28;20052;-63
2023/04/09 05:15:51;;;;;;;31.00;17.67;;;;;;;7.25;100.00;102367.25;5061108;28;20033;-63
2023/04/09 05:18:19;;;;;;;31.15;18.95;;;;;;;7.12;100.00;102368.47;5064702;28;20087;-63
2023/04/09 05:20:47;;;;;;;29.85;18.55;;;;;;;7.13;100.00;102367.56;5062571;28;20120;-64
2023/04/09 05:23:17;;;;;;;30.27;17.60;;;;;;;7.06;100.00;102369.50;5059377;28;20036;-63
2023/04/09 05:25:45;;;;;;;30.45;17.63;;;;;;;6.96;100.00;102369.78;5062635;28;20045;-63
2023/04/09 05:28:15;;;;;;;34.22;19.50;;;;;;;6.90;100.00;102371.63;5063044;28;20033;-63
2023/04/09 05:30:46;;;;;;;30.98;18.02;;;;;;;6.88;100.00;102370.78;5059946;28;20127;-63
2023/04/09 05:33:14;;;;;;;30.40;17.50;;;;;;;6.82;100.00;102376.19;5061513;28;20072;-64
2023/04/09 05:35:42;;;;;;;32.63;18.25;;;;;;;6.79;100.00;102383.25;5073003;28;20047;-64
2023/04/09 05:38:12;;;;;;;30.88;17.92;;;;;;;6.75;100.00;102377.25;5065030;28;20379;-63
2023/04/09 05:40:43;;;;;;;34.45;18.23;;;;;;;6.67;100.00;102387.03;5072156;28;20109;-63
2023/04/09 05:43:11;;;;;;;33.28;18.75;;;;;;;6.67;100.00;102385.28;5073284;28;20094;-64
2023/04/09 05:45:40;;;;;;;29.42;17.50;;;;;;;6.62;100.00;102381.91;5070669;28;20052;-64
2023/04/09 05:48:08;;;;;;;34.35;18.88;;;;;;;6.58;100.00;102385.50;5069594;28;20048;-63
2023/04/09 05:50:36;;;;;;;31.17;17.58;;;;;;;6.62;100.00;102381.06;5070104;28;20048;-63
2023/04/09 05:53:21;;;;;;;34.45;17.65;;;;;;;6.54;100.00;102379.47;5050927;28;20076;-64
2023/04/09 05:55:51;;;;;;;30.73;18.20;;;;;;;6.60;100.00;102383.72;5054010;28;20514;-63
2023/04/09 05:58:19;;;;;;;34.08;18.58;;;;;;;6.54;100.00;102374.22;5061436;28;20086;-63
2023/04/09 06:00:47;;;;;;;29.23;17.75;;;;;;;6.60;100.00;102371.50;5063839;28;20143;-64
2023/04/09 06:03:15;;;;;;;31.60;18.60;;;;;;;6.63;100.00;102377.56;5058668;28;20049;-64
2023/04/09 06:05:45;;;;;;;28.45;17.67;;;;;;;6.63;100.00;102381.03;5058640;28;20067;-63
2023/04/09 06:08:14;;;;;;;31.77;19.10;;;;;;;6.58;100.00;102378.50;5062075;28;20062;-63
2023/04/09 06:10:42;;;;;;;32.72;18.77;;;;;;;6.59;100.00;102382.00;5058827;28;20128;-63
2023/04/09 06:13:11;;;;;;;33.55;19.15;;;;;;;6.62;100.00;102381.06;5058853;28;20048;-64
2023/04/09 06:15:39;;;;;;;31.27;18.05;;;;;;;6.63;100.00;102383.63;5060590;28;20144;-63
2023/04/09 06:18:08;;;;;;;36.20;20.13;;;;;;;6.66;100.00;102377.47;5059998;28;20090;-64
2023/04/09 06:20:36;;;;;;;31.13;17.38;;;;;;;6.71;100.00;102375.63;5057660;28;20107;-64
2023/04/09 06:23:05;;;;;;;32.85;18.58;;;;;;;6.73;100.00;102377.25;5058406;28;20045;-63
2023/04/09 06:25:33;;;;;;;32.67;18.92;;;;;;;6.75;100.00;102378.09;5058761;28;20718;-63
2023/04/09 06:28:01;;;;;;;36.95;19.48;;;;;;;6.76;100.00;102379.84;5062387;28;20383;-64
2023/04/09 06:30:31;;;;;;;32.08;18.58;;;;;;;6.81;100.00;102387.53;5062546;28;20044;-63
2023/04/09 06:32:59;;;;;;;34.83;19.70;;;;;;;6.79;100.00;102386.75;5059199;28;20052;-64
2023/04/09 06:35:28;;;;;;;33.03;18.40;;;;;;;6.82;100.00;102388.44;5056114;28;20071;-64
2023/04/09 06:37:56;;;;;;;36.88;19.55;;;;;;;6.83;100.00;102391.00;5061384;28;20048;-63
2023/04/09 06:40:24;;;;;;;33.22;18.77;;;;;;;6.87;100.00;102391.75;5060024;28;20056;-64
2023/04/09 06:42:52;;;;;;;31.23;18.35;;;;;;;7.01;100.00;102394.03;5062579;28;20037;-63
2023/04/09 06:45:20;;;;;;;33.22;19.00;;;;;;;7.06;100.00;102400.00;5059423;28;20053;-64
2023/04/09 06:47:50;;;;;;;32.95;19.20;;;;;;;7.11;100.00;102401.59;5060839;28;20102;-63
2023/04/09 06:50:18;;;;;;;33.78;19.30;;;;;;;7.13;100.00;102401.59;5064704;28;20048;-64
2023/04/09 06:52:46;;;;;;;34.30;19.15;;;;;;;7.31;100.00;102399.38;5067335;28;20384;-64
2023/04/09 06:55:14;;;;;;;34.15;20.58;;;;;;;7.31;100.00;102395.00;5065145;28;20090;-64
2023/04/09 06:57:42;;;;;;;34.72;19.73;;;;;;;7.38;100.00;102393.94;5059519;28;20055;-64
2023/04/09 07:00:11;;;;;;;32.70;19.48;;;;;;;7.50;100.00;102398.00;5065580;28;20124;-64
2023/04/09 07:02:40;;;;;;;34.40;19.13;;;;;;;7.58;100.00;102395.13;5062755;28;20044;-64
2023/04/09 07:05:10;;;;;;;34.50;19.70;;;;;;;7.66;100.00;102394.94;5060541;28;20085;-64
2023/04/09 07:07:38;;;;;;;33.72;19.13;;;;;;;7.74;100.00;102403.44;5055209;28;20057;-64
2023/04/09 07:10:08;;;;;;;37.40;21.73;;;;;;;7.84;100.00;102398.78;5057173;28;20044;-64
2023/04/09 07:12:36;;;;;;;33.75;19.88;;;;;;;7.95;100.00;102394.97;5060422;28;20044;-64
2023/04/09 07:15:06;;;;;;;30.30;18.92;;;;;;;8.08;100.00;102398.06;5062014;28;20037;-65
2023/04/09 07:17:34;;;;;;;35.15;21.10;;;;;;;8.18;100.00;102403.91;5061275;28;20048;-64
2023/04/09 07:20:02;;;;;;;33.38;19.77;;;;;;;8.31;100.00;102407.00;5059340;28;20037;-64
2023/04/09 07:22:32;;;;;;;34.38;19.23;;;;;;;8.38;100.00;102407.66;5072181;28;20079;-64
2023/04/09 07:25:00;;;;;;;37.13;20.98;;;;;;;8.44;100.00;102404.88;5069666;28;20045;-64
2023/04/09 07:27:29;;;;;;;36.10;20.48;;;;;;;8.64;100.00;102401.63;5060780;28;20090;-64
2023/04/09 07:30:00;;;;;;;32.00;19.33;;;;;;;8.75;100.00;102402.16;5057745;28;20524;-64
2023/04/09 07:32:28;;;;;;;34.60;20.45;;;;;;;8.94;100.00;102402.41;5067107;28;20123;-64
2023/04/09 07:34:58;;;;;;;35.50;20.17;;;;;;;9.02;100.00;102396.88;5071835;28;20086;-64
2023/04/09 07:37:26;;;;;;;32.42;20.23;;;;;;;9.18;100.00;102405.09;5063430;28;20579;-64
2023/04/09 07:39:56;;;;;;;36.30;20.85;;;;;;;9.31;100.00;102405.50;5070590;28;20076;-64
2023/04/09 07:42:24;;;;;;;35.38;20.52;;;;;;;9.45;100.00;102394.56;5071260;28;20434;-64
2023/04/09 07:44:52;;;;;;;33.42;19.98;;;;;;;9.63;100.00;102396.50;5059473;28;20048;-64
2023/04/09 07:47:21;;;;;;;33.22;18.85;;;;;;;9.80;100.00;102398.50;5057298;28;20511;-64
2023/04/09 07:49:49;;;;;;;33.33;20.40;;;;;;;9.97;100.00;102397.03;5070167;28;20522;-64
2023/04/09 07:52:18;;;;;;;31.70;20.08;;;;;;;10.07;100.00;102401.00;5073645;28;20053;-64
2023/04/09 07:54:49;;;;;;;33.15;20.52;;;;;;;10.20;100.00;102396.13;5065493;28;20412;-64
2023/04/09 07:57:19;;;;;;;29.40;18.80;;;;;;;10.26;100.00;102401.16;5073694;28;20434;-64
2023/04/09 07:59:47;;;;;;;31.05;19.08;;;;;;;10.46;100.00;102404.81;5074556;28;20399;-65
2023/04/09 08:02:17;;;;;;;30.02;19.08;;;;;;;10.60;100.00;102404.25;5071501;28;20041;-64
2023/04/09 08:04:48;;;;;;;31.23;18.63;;;;;;;10.79;100.00;102401.72;5072777;28;20055;-65
2023/04/09 08:07:18;;;;;;;29.40;19.45;;;;;;;11.02;100.00;102405.19;5075404;28;20514;-64
2023/04/09 08:09:46;;;;;;;30.25;19.92;;;;;;;11.21;100.00;102403.47;5075162;28;20483;-64
2023/04/09 08:12:19;;;;;;;27.27;17.73;;;;;;;11.42;100.00;102404.31;5060222;28;20728;-64
2023/04/09 08:14:47;;;;;;;26.80;17.60;;;;;;;11.58;100.00;102409.75;5061945;28;20045;-65
2023/04/09 08:17:15;;;;;;;27.40;18.15;;;;;;;11.61;100.00;102403.50;5066155;28;20047;-66
2023/04/09 08:19:43;;;;;;;26.52;17.92;;;;;;;11.81;100.00;102402.59;5062745;28;20040;-64
2023/04/09 08:22:14;;;;;;;28.67;17.63;;;;;;;11.79;100.00;102396.53;5059162;28;20045;-65
2023/04/09 08:24:42;;;;;;;25.45;18.67;;;;;;;11.91;100.00;102397.75;5063227;28;20048;-64
2023/04/09 08:27:10;;;;;;;27.58;18.75;;;;;;;12.04;100.00;102398.06;5065154;28;20127;-65
2023/04/09 08:29:41;;;;;;;28.60;18.27;;;;;;;12.26;100.00;102404.06;5069301;28;20040;-65
2023/04/09 08:32:09;;;;;;;27.17;18.75;;;;;;;12.48;100.00;102405.66;5064116;28;20048;-65
2023/04/09 08:34:37;;;;;;;26.02;16.90;;;;;;;12.68;100.00;102412.63;5059818;28;20070;-65
2023/04/09 08:37:05;;;;;;;25.30;16.90;;;;;;;12.73;100.00;102415.03;5060401;28;20123;-65
2023/04/09 08:39:35;;;;;;;24.83;15.80;;;;;;;12.88;100.00;102414.25;5063829;28;20052;-65
2023/04/09 08:42:06;;;;;;;23.52;15.18;;;;;;;12.92;100.00;102414.97;5061483;28;20074;-65
2023/04/09 08:44:34;;;;;;;22.27;15.02;;;;;;;12.88;100.00;102419.53;5056747;28;20057;-65
2023/04/09 08:47:10;;;;;;;24.02;14.43;;;;;;;13.05;100.00;102409.91;5065774;28;20068;-65
2023/04/09 08:49:40;;;;;;;22.60;15.32;;;;;;;13.09;100.00;102404.41;5067370;28;20045;-66
2023/04/09 08:52:08;;;;;;;23.10;15.18;;;;;;;12.98;100.00;102410.22;5064055;28;20040;-65
2023/04/09 08:54:39;;;;;;;21.80;15.07;;;;;;;13.29;100.00;102405.16;5063840;28;20044;-65
2023/04/09 08:57:07;;;;;;;24.13;15.18;;;;;;;13.39;100.00;102398.50;5061427;28;20052;-65
2023/04/09 08:59:36;;;;;;;22.52;14.18;;;;;;;13.51;100.00;102403.13;5058300;28;20083;-65
2023/04/09 09:02:10;;;;;;;21.25;14.40;;;;;;;13.55;100.00;102401.16;5059203;28;20123;-65
2023/04/09 09:04:46;;;;;;;21.73;13.70;;;;;;;13.61;100.00;102386.78;5066503;28;20057;-65
2023/04/09 09:07:15;;;;;;;22.73;14.93;;;;;;;13.82;100.00;102395.34;5067257;28;20068;-65
2023/04/09 09:09:54;;;;;;;23.05;14.63;;;;;;;14.07;100.00;102392.22;5062322;28;20114;-65
2023/04/09 09:12:32;;;;;;;20.95;14.13;;;;;;;13.79;96.98;102392.88;5061993;28;20076;-65
2023/04/09 09:15:01;;;;;;;22.52;13.95;;;;;;;14.02;99.86;102387.16;5059443;28;20055;-65
2023/04/09 09:17:30;;;;;;;19.52;13.48;;;;;;;14.39;100.00;102391.34;5061836;28;20113;-65
2023/04/09 09:19:58;;;;;;;20.33;13.00;;;;;;;14.70;100.00;102378.06;5061935;28;20082;-64
2023/04/09 09:22:27;;;;;;;21.00;13.95;;;;;;;14.65;94.36;102379.28;5061052;28;20043;-65
2023/04/09 09:24:56;;;;;;;19.65;12.73;;;;;;;14.46;91.41;102380.31;5059849;28;20072;-65
2023/04/09 09:27:38;;;;;;;19.92;13.75;;;;;;;14.69;88.97;102379.00;5059942;28;20051;-64
2023/04/09 09:30:09;;;;;;;20.55;13.50;;;;;;;14.67;89.77;102372.97;5063971;28;20036;-65
2023/04/09 09:32:38;;;;;;;19.42;13.18;;;;;;;14.96;93.71;102364.25;5061707;28;20045;-65
2023/04/09 09:35:08;;;;;;;20.45;14.07;;;;;;;14.92;91.21;102366.22;5062224;28;20057;-63
2023/04/09 09:37:35;;;;;;;20.88;13.80;;;;;;;15.07;90.02;102372.41;5063228;28;20119;-62
2023/04/09 09:40:04;;;;;;;19.80;14.15;;;;;;;15.38;89.97;102367.88;5064079;28;20403;-63
2023/04/09 09:42:33;;;;;;;21.25;14.27;;;;;;;15.36;88.70;102375.06;5064267;28;20562;-64
2023/04/09 09:45:04;;;;;;;21.25;14.40;;;;;;;15.04;89.78;102368.13;5059516;28;20123;-63
2023/04/09 09:47:35;;;;;;;20.77;14.43;;;;;;;15.42;86.27;102368.53;5064781;28;20469;-63
2023/04/09 09:50:06;;;;;;;21.52;13.93;;;;;;;15.63;87.97;102367.19;5059617;28;20448;-63
2023/04/09 09:52:35;;;;;;;22.23;14.30;;;;;;;15.77;89.72;102362.84;5061002;28;20040;-66
2023/04/09 09:55:06;;;;;;;19.58;13.13;;;;;;;15.94;84.48;102361.78;5059800;28;20040;-64
2023/04/09 09:57:39;;;;;;;20.00;13.98;;;;;;;15.76;81.51;102356.69;5063460;28;20078;-60
2023/04/09 10:00:08;;;;;;;19.95;13.98;;;;;;;15.64;83.59;102362.78;5061851;28;20044;-63
2023/04/09 10:02:43;;;;;;;17.73;12.05;;;;;;;16.07;85.64;102354.75;5063066;28;20037;-63
2023/04/09 10:05:14;;;;;;;18.08;12.13;;;;;;;15.85;78.68;102360.59;5060492;28;20094;-63
2023/04/09 10:07:43;;;;;;;18.58;11.80;;;;;;;15.93;77.85;102362.75;5062642;28;20059;-59
2023/04/09 10:10:12;;;;;;;18.95;12.57;;;;;;;16.10;78.07;102357.22;5062897;28;20050;-64
2023/04/09 10:12:41;;;;;;;15.63;10.15;;;;;;;16.17;70.88;102353.22;5060926;28;20127;-65
2023/04/09 10:15:12;;;;;;;18.25;11.45;;;;;;;16.07;71.31;102346.78;5061427;28;20044;-63
2023/04/09 10:17:41;;;;;;;15.85;10.50;;;;;;;16.38;73.32;102342.13;5063488;28;20044;-63
2023/04/09 10:20:15;;;;;;;15.25;10.18;;;;;;;16.40;67.92;102337.56;5057327;28;20098;-63
2023/04/09 10:22:48;;;;;;;16.40;11.25;;;;;;;16.39;73.88;102331.41;5056584;28;20086;-63
2023/04/09 10:25:16;;;;;;;16.23;10.50;;;;;;;16.96;73.90;102332.06;5054784;28;20496;-63
2023/04/09 10:27:47;;;;;;;15.13;9.82;;;;;;;17.22;65.02;102327.59;5052136;28;20048;-63
2023/04/09 10:30:33;;;;;;;14.40;8.73;;;;;;;17.06;62.16;102321.66;5055745;28;20041;-63
2023/04/09 10:33:11;;;;;;;14.15;8.48;;;;;;;17.43;62.71;102323.53;5056192;28;20048;-63
2023/04/09 10:35:41;;;;;;;14.90;9.05;;;;;;;17.54;59.54;102312.97;5060516;28;20041;-63
2023/04/09 10:38:14;;;;;;;12.50;8.27;;;;;;;17.86;58.96;102312.44;5059339;28;20036;-63
2023/04/09 10:40:48;;;;;;;12.70;8.57;;;;;;;17.59;55.60;102308.19;5058564;28;20086;-63
2023/04/09 10:43:19;;;;;;;17.05;8.23;;;;;;;17.66;58.59;102311.25;5065335;28;20083;-63
2023/04/09 10:45:52;;;;;;;11.63;6.72;;;;;;;17.53;55.27;102309.47;5060523;28;20041;-63
2023/04/09 10:48:20;;;;;;;10.48;6.70;;;;;;;17.88;58.16;102310.53;5057783;28;20065;-63
2023/04/09 10:50:51;;;;;;;10.43;6.45;;;;;;;18.03;55.24;102303.25;5056603;28;20041;-63
2023/04/09 10:53:23;;;;;;;10.75;6.47;;;;;;;17.68;53.91;102306.66;5063716;28;20451;-63
2023/04/09 10:55:52;;;;;;;;;;;;;;;17.90;53.66;102300.59;5057970;28;20482;-64
2023/04/09 10:58:20;;;;;;;11.77;7.65;;;;;;;17.80;55.87;102300.44;5055837;28;19964;-64
2023/04/09 11:00:50;;;;;;;13.52;9.32;;;;;;;18.12;56.36;102296.41;5062885;28;20051;-63
2023/04/09 11:03:28;;;;;;;13.40;9.20;;;;;;;18.39;58.48;102291.69;5054999;28;20049;-63
2023/04/09 11:06:02;;;;;;;15.30;10.02;;;;;;;18.57;55.01;102299.25;5061461;28;20556;-63
2023/04/09 11:08:32;;;;;;;13.38;8.73;;;;;;;19.07;55.51;102291.84;5060173;28;20037;-63
2023/04/09 11:11:01;;;;;;;13.00;8.70;;;;;;;19.31;51.49;102287.34;5059274;28;20080;-62
2023/04/09 11:13:30;;;;;;;14.23;9.25;;;;;;;19.04;50.44;102288.53;5068632;28;20075;-63
2023/04/09 11:15:59;;;;;;;13.82;8.70;;;;;;;18.98;49.46;102281.88;5076491;28;20110;-62
2023/04/09 11:18:30;;;;;;;13.65;8.82;;;;;;;18.65;49.29;102279.97;5074712;28;20546;-63
2023/04/09 11:21:02;;;;;;;13.43;8.35;;;;;;;18.82;51.65;102276.88;5073403;28;20049;-63